Time;durP1;ratioP1;P1;durP2;ratioP2;P2;SDS_P1;SDS_P2;PMS_P1;PMS_P2;Temp;Humidity;BMP_temperature;BMP_pressure;BME280_temperature;BME280_humidity;BME280_pressure;Samples;Min_cycle;Max_cycle;Signal;HPM_P1;HPM_P2
2021/03/10 00:00:11;;;;;;;29.35;24.30;;;4.40;99.90;;;;;;5031131;28;20239;-40
2021/03/10 00:02:39;;;;;;;31.85;25.73;;;4.40;99.90;;;;;;5031378;28;20332;-40
2021/03/10 00:05:08;;;;;;;32.65;26.10;;;4.40;99.90;;;;;;5031076;28;20209;-40
2021/03/10 00:07:35;;;;;;;28.77;23.52;;;4.40;99.90;;;;;;5031330;28;20303;-40
2021/03/10 00:10:03;;;;;;;36.00;26.95;;;4.40;99.90;;;;;;5031243;28;20215;-39
2021/03/10 00:12:30;;;;;;;34.13;26.25;;;4.50;99.90;;;;;;5031219;28;20236;-39
2021/03/10 00:14:58;;;;;;;28.92;25.60;;;4.50;99.90;;;;;;5031124;28;20608;-39
2021/03/10 00:17:25;;;;;;;32.53;25.25;;;4.50;99.90;;;;;;5031121;28;20228;-39
2021/03/10 00:19:52;;;;;;;30.30;25.60;;;4.50;99.90;;;;;;5031410;28;20258;-40
2021/03/10 00:22:19;;;;;;;32.55;26.13;;;4.50;99.90;;;;;;5031213;28;20209;-40
2021/03/10 00:24:46;;;;;;;33.03;27.13;;;4.40;99.90;;;;;;5034875;28;20231;-40
2021/03/10 00:27:23;;;;;;;32.50;26.30;;;4.40;99.90;;;;;;5034931;28;20311;-40
2021/03/10 00:29:52;;;;;;;33.13;26.35;;;4.40;99.90;;;;;;5035351;28;20208;-40
2021/03/10 00:32:20;;;;;;;32.42;27.33;;;4.40;99.90;;;;;;5035059;28;20304;-40
2021/03/10 00:34:48;;;;;;;33.28;26.73;;;4.40;99.90;;;;;;5034974;28;20627;-41
2021/03/10 00:37:15;;;;;;;33.88;28.60;;;4.30;99.90;;;;;;5034975;28;20341;-40
2021/03/10 00:39:44;;;;;;;31.83;27.15;;;4.40;99.90;;;;;;5034909;28;20659;-40
2021/03/10 00:42:12;;;;;;;38.58;29.25;;;4.30;99.90;;;;;;5035050;28;20212;-40
2021/03/10 00:44:40;;;;;;;30.63;25.13;;;4.40;99.90;;;;;;5035125;28;20251;-41
2021/03/10 00:47:08;;;;;;;36.10;26.83;;;4.40;99.90;;;;;;5034874;28;20240;-40
2021/03/10 00:49:38;;;;;;;33.50;27.75;;;4.40;99.90;;;;;;5034540;28;20265;-41
2021/03/10 00:52:06;;;;;;;34.38;27.50;;;4.40;99.90;;;;;;5034837;28;20295;-40
2021/03/10 00:54:33;;;;;;;33.42;27.08;;;4.30;99.90;;;;;;5034521;28;20295;-40
2021/03/10 00:57:00;;;;;;;36.90;27.60;;;4.30;99.90;;;;;;5034608;28;20323;-40
2021/03/10 00:59:27;;;;;;;33.58;27.35;;;4.30;99.90;;;;;;5034659;28;20595;-41
2021/03/10 01:01:54;;;;;;;36.38;28.50;;;4.30;99.90;;;;;;5034299;28;20236;-40
2021/03/10 01:04:21;;;;;;;34.67;27.23;;;4.20;99.90;;;;;;5034386;28;20470;-40
2021/03/10 01:06:49;;;;;;;35.60;28.80;;;4.20;99.90;;;;;;5034672;28;20211;-41
2021/03/10 01:09:18;;;;;;;35.28;27.80;;;4.20;99.90;;;;;;5034555;28;20308;-41
2021/03/10 01:11:45;;;;;;;35.47;28.17;;;4.10;99.90;;;;;;5034459;28;20648;-41
2021/03/10 01:14:12;;;;;;;37.03;28.95;;;4.10;99.90;;;;;;5034611;28;20212;-41
2021/03/10 01:16:39;;;;;;;34.72;28.50;;;4.10;99.90;;;;;;5034372;28;20319;-41
2021/03/10 01:19:06;;;;;;;36.13;27.70;;;4.10;99.90;;;;;;5034166;28;20220;-40
2021/03/10 01:21:36;;;;;;;33.78;28.58;;;4.10;99.90;;;;;;5034788;28;20303;-40
2021/03/10 01:24:06;;;;;;;34.45;27.92;;;4.10;99.90;;;;;;5034529;28;20244;-40
2021/03/10 01:26:33;;;;;;;32.95;26.92;;;4.10;99.90;;;;;;5034469;28;20209;-41
2021/03/10 01:29:01;;;;;;;35.30;29.35;;;4.10;99.90;;;;;;5034229;28;20335;-41
2021/03/10 01:31:28;;;;;;;32.55;27.60;;;4.10;99.90;;;;;;5034117;28;20216;-41
2021/03/10 01:33:55;;;;;;;32.58;25.90;;;4.10;99.90;;;;;;5033706;28;20235;-41
2021/03/10 01:36:22;;;;;;;35.03;28.52;;;4.10;99.90;;;;;;5032941;28;20319;-41
2021/03/10 01:38:49;;;;;;;35.13;27.58;;;4.10;99.90;;;;;;5033831;28;20208;-41
2021/03/10 01:41:17;;;;;;;76.55;55.85;;;4.10;99.90;;;;;;5033658;28;20300;-41
2021/03/10 01:43:44;;;;;;;42.10;32.95;;;4.10;99.90;;;;;;5033590;28;20209;-41
2021/03/10 01:46:11;;;;;;;33.75;27.55;;;4.20;99.90;;;;;;5033573;28;20228;-41
2021/03/10 01:48:42;;;;;;;35.47;27.67;;;4.20;99.90;;;;;;5033571;28;20376;-41
2021/03/10 01:51:09;;;;;;;41.85;32.22;;;4.20;99.90;;;;;;5033777;28;20219;-41
2021/03/10 01:53:36;;;;;;;32.60;28.45;;;4.20;99.90;;;;;;5033234;28;20240;-41
2021/03/10 01:56:04;;;;;;;34.85;28.85;;;4.20;99.90;;;;;;5033341;28;20266;-41
2021/03/10 01:58:32;;;;;;;38.33;29.77;;;4.20;99.90;;;;;;5033407;28;20209;-41
2021/03/10 02:00:59;;;;;;;36.72;29.13;;;4.10;99.90;;;;;;5033121;28;20749;-41
2021/03/10 02:03:26;;;;;;;36.47;31.67;;;4.10;99.90;;;;;;5033035;28;20240;-41
2021/03/10 02:05:54;;;;;;;33.67;28.80;;;4.10;99.90;;;;;;5033101;28;20256;-41
2021/03/10 02:08:39;;;;;;;36.05;28.48;;;4.10;99.90;;;;;;5033192;28;20299;-40
2021/03/10 02:11:12;;;;;;;38.13;29.17;;;4.10;99.90;;;;;;5033086;28;20208;-40
2021/03/10 02:13:50;;;;;;;36.67;28.33;;;4.20;99.90;;;;;;5032876;28;20622;-41
2021/03/10 02:16:24;;;;;;;34.95;28.58;;;4.20;99.90;;;;;;5033164;28;20319;-41
2021/03/10 02:19:05;;;;;;;35.75;28.42;;;4.20;99.90;;;;;;5033112;28;20212;-41
2021/03/10 02:21:46;;;;;;;36.08;28.83;;;4.20;99.90;;;;;;5033103;28;20212;-41
2021/03/10 02:24:34;;;;;;;31.65;27.17;;;4.20;99.90;;;;;;5033148;28;20643;-41
2021/03/10 02:27:32;;;;;;;36.35;29.00;;;4.20;99.90;;;;;;5032992;28;20308;-41
2021/03/10 02:30:06;;;;;;;35.60;28.67;;;4.30;99.90;;;;;;5032797;28;20295;-41
2021/03/10 02:32:35;;;;;;;34.20;27.65;;;4.20;99.90;;;;;;5032939;28;20295;-40
2021/03/10 02:35:03;;;;;;;35.45;29.27;;;4.10;99.90;;;;;;5032725;28;20307;-40
2021/03/10 02:37:32;;;;;;;34.30;27.83;;;4.20;99.90;;;;;;5032941;28;20331;-43
2021/03/10 02:39:59;;;;;;;37.05;30.27;;;4.20;99.90;;;;;;5032682;28;20248;-40
2021/03/10 02:42:27;;;;;;;36.65;30.10;;;4.10;99.90;;;;;;5032282;28;20243;-43
2021/03/10 02:44:56;;;;;;;35.55;28.67;;;4.10;99.90;;;;;;5032584;28;20282;-43
2021/03/10 02:47:25;;;;;;;34.80;28.63;;;4.20;99.90;;;;;;5032191;28;20709;-41
2021/03/10 02:49:53;;;;;;;36.65;29.73;;;4.20;99.90;;;;;;5032719;28;20220;-40
2021/03/10 02:52:21;;;;;;;38.30;30.33;;;4.20;99.90;;;;;;5032817;28;20233;-40
2021/03/10 02:54:49;;;;;;;41.97;34.35;;;4.20;99.90;;;;;;5032521;28;20618;-41
2021/03/10 02:57:16;;;;;;;35.42;29.27;;;4.20;99.90;;;;;;5032261;28;20228;-40
2021/03/10 02:59:45;;;;;;;37.80;31.05;;;4.20;99.90;;;;;;5032460;28;20209;-40
2021/03/10 03:02:13;;;;;;;35.65;28.73;;;4.20;99.90;;;;;;5032526;28;20326;-40
2021/03/10 03:04:41;;;;;;;36.33;30.05;;;4.20;99.90;;;;;;5032334;28;20208;-40
2021/03/10 03:07:18;;;;;;;36.80;30.98;;;4.20;99.90;;;;;;5032736;28;20291;-40
2021/03/10 03:09:45;;;;;;;34.25;29.63;;;4.20;99.90;;;;;;5032478;28;20286;-40
2021/03/10 03:12:14;;;;;;;47.33;36.33;;;4.20;99.90;;;;;;5032360;28;20213;-40
2021/03/10 03:14:43;;;;;;;37.13;29.88;;;4.20;99.90;;;;;;5032532;28;20653;-40
2021/03/10 03:17:11;;;;;;;34.67;29.42;;;4.20;99.90;;;;;;5032111;28;20734;-40
2021/03/10 03:19:38;;;;;;;38.60;30.65;;;4.20;99.90;;;;;;5032533;28;20303;-40
2021/03/10 03:22:07;;;;;;;39.75;31.60;;;4.20;99.90;;;;;;5032258;28;20298;-40
2021/03/10 03:24:35;;;;;;;40.35;32.30;;;4.20;99.90;;;;;;5031944;28;20216;-40
2021/03/10 03:27:04;;;;;;;40.33;31.95;;;4.20;99.90;;;;;;5032067;28;20205;-40
2021/03/10 03:29:32;;;;;;;35.47;29.50;;;4.30;99.90;;;;;;5032115;28;20337;-40
2021/03/10 03:32:00;;;;;;;39.58;31.20;;;4.30;99.90;;;;;;5031966;28;20295;-39
2021/03/10 03:34:28;;;;;;;40.55;33.33;;;4.30;99.90;;;;;;5031898;28;20235;-41
2021/03/10 03:36:55;;;;;;;38.53;32.42;;;4.30;99.90;;;;;;5031713;28;20264;-41
2021/03/10 03:39:25;;;;;;;36.65;29.33;;;4.20;99.90;;;;;;5031975;28;20291;-39
2021/03/10 03:41:52;;;;;;;36.08;29.75;;;4.20;99.90;;;;;;5031846;28;20320;-39
2021/03/10 03:44:19;;;;;;;38.72;31.92;;;4.20;99.90;;;;;;5031747;28;20208;-39
2021/03/10 03:46:47;;;;;;;42.97;33.13;;;4.20;99.90;;;;;;5031443;28;20244;-39
2021/03/10 03:49:15;;;;;;;40.55;32.97;;;4.20;99.90;;;;;;5031522;28;20301;-41
2021/03/10 03:51:42;;;;;;;39.92;31.85;;;4.20;99.90;;;;;;5031978;28;20316;-39
2021/03/10 03:54:09;;;;;;;40.10;32.83;;;4.20;99.90;;;;;;5031476;28;20208;-39
2021/03/10 03:56:37;;;;;;;38.55;33.05;;;4.20;99.90;;;;;;5032107;28;20232;-39
2021/03/10 03:59:05;;;;;;;40.13;32.42;;;4.30;99.90;;;;;;5034358;28;20235;-39
2021/03/10 04:01:32;;;;;;;43.97;34.17;;;4.20;99.90;;;;;;5035500;28;20316;-39
2021/03/10 04:03:59;;;;;;;38.55;32.63;;;4.30;99.90;;;;;;5035780;28;20204;-39
2021/03/10 04:06:26;;;;;;;39.28;32.30;;;4.20;99.90;;;;;;5035810;28;20236;-40
2021/03/10 04:08:52;;;;;;;43.35;33.03;;;4.20;99.90;;;;;;5035732;28;20576;-40
2021/03/10 04:11:19;;;;;;;42.33;32.72;;;4.20;99.90;;;;;;5035748;28;20208;-40
2021/03/10 04:13:47;;;;;;;40.05;32.30;;;4.20;99.90;;;;;;5035608;28;20208;-39
2021/03/10 04:16:14;;;;;;;41.17;32.05;;;4.20;99.90;;;;;;5035389;28;20320;-40
2021/03/10 04:18:42;;;;;;;41.88;32.13;;;4.20;99.90;;;;;;5035474;28;20693;-40
2021/03/10 04:21:09;;;;;;;38.88;31.13;;;4.20;99.90;;;;;;5035703;28;20440;-40
2021/03/10 04:23:36;;;;;;;38.53;32.55;;;4.20;99.90;;;;;;5035334;28;20213;-40
2021/03/10 04:26:03;;;;;;;50.35;35.90;;;4.20;99.90;;;;;;5035396;28;20583;-40
2021/03/10 04:28:30;;;;;;;41.00;33.35;;;4.20;99.90;;;;;;5035275;28;20311;-40
2021/03/10 04:30:57;;;;;;;39.83;31.17;;;4.20;99.90;;;;;;5035190;28;20205;-40
2021/03/10 04:33:25;;;;;;;40.85;31.50;;;4.20;99.90;;;;;;5035396;28;20307;-40
2021/03/10 04:35:53;;;;;;;41.95;33.35;;;4.30;99.90;;;;;;5035251;28;20221;-40
2021/03/10 04:38:27;;;;;;;40.83;32.60;;;4.30;99.90;;;;;;5035198;28;20243;-40
2021/03/10 04:40:54;;;;;;;41.30;32.03;;;4.30;99.90;;;;;;5035047;28;20214;-40
2021/03/10 04:43:21;;;;;;;38.00;30.25;;;4.40;99.90;;;;;;5034874;28;20244;-40
2021/03/10 04:45:48;;;;;;;38.42;31.15;;;4.30;99.90;;;;;;5034823;28;20244;-40
2021/03/10 04:48:16;;;;;;;37.92;30.38;;;4.30;99.90;;;;;;5035037;28;20417;-40
2021/03/10 04:50:43;;;;;;;33.47;29.48;;;4.30;99.90;;;;;;5034858;28;20288;-40
2021/03/10 04:53:10;;;;;;;41.17;31.27;;;4.30;99.90;;;;;;5034956;28;20216;-40
2021/03/10 04:55:37;;;;;;;38.45;31.45;;;4.30;99.90;;;;;;5034547;28;20208;-40
2021/03/10 04:58:04;;;;;;;39.97;31.67;;;4.30;99.90;;;;;;5034454;28;20232;-40
2021/03/10 05:00:31;;;;;;;38.40;30.58;;;4.30;99.90;;;;;;5034654;28;20217;-40
2021/03/10 05:02:58;;;;;;;42.83;32.08;;;4.30;99.90;;;;;;5034302;28;20268;-40
2021/03/10 05:05:26;;;;;;;38.20;31.15;;;4.20;99.90;;;;;;5034155;28;20218;-40
2021/03/10 05:07:53;;;;;;;38.15;30.25;;;4.20;99.90;;;;;;5034122;28;20319;-41
2021/03/10 05:10:20;;;;;;;39.75;30.20;;;4.20;99.90;;;;;;5034104;28;20380;-41
2021/03/10 05:12:47;;;;;;;41.25;30.77;;;4.20;99.90;;;;;;5034059;28;20251;-39
2021/03/10 05:15:15;;;;;;;37.47;31.77;;;4.20;99.90;;;;;;5034464;28;20283;-39
2021/03/10 05:17:42;;;;;;;39.13;31.55;;;4.10;99.90;;;;;;5034289;28;20315;-40
2021/03/10 05:20:11;;;;;;;39.85;28.63;;;4.10;99.90;;;;;;5034108;28;20282;-39
2021/03/10 05:22:40;;;;;;;36.95;30.98;;;4.10;99.90;;;;;;5034213;28;20205;-40
2021/03/10 05:25:08;;;;;;;45.28;32.25;;;4.20;99.90;;;;;;5033987;28;20629;-39
2021/03/10 05:27:36;;;;;;;39.13;31.83;;;4.20;99.90;;;;;;5034167;28;20287;-39
2021/03/10 05:30:07;;;;;;;36.67;29.65;;;4.20;99.90;;;;;;5033992;28;20737;-40
2021/03/10 05:32:34;;;;;;;40.42;33.58;;;4.20;99.90;;;;;;5033993;28;20220;-39
2021/03/10 05:35:01;;;;;;;45.63;34.63;;;4.20;99.90;;;;;;5033887;28;20205;-40
2021/03/10 05:37:28;;;;;;;40.88;31.23;;;4.20;99.90;;;;;;5033831;28;20589;-40
2021/03/10 05:39:56;;;;;;;36.63;29.98;;;4.30;99.90;;;;;;5033880;28;20242;-40
2021/03/10 05:42:23;;;;;;;39.65;31.45;;;4.30;99.90;;;;;;5033852;28;20215;-40
2021/03/10 05:44:51;;;;;;;40.55;30.95;;;4.30;99.90;;;;;;5033914;28;20244;-40
2021/03/10 05:47:19;;;;;;;39.92;32.25;;;4.30;99.90;;;;;;5033719;28;20208;-40
2021/03/10 05:49:47;;;;;;;35.75;30.00;;;4.30;99.90;;;;;;5033784;28;20512;-40
2021/03/10 05:52:15;;;;;;;37.97;31.02;;;4.40;99.90;;;;;;5033704;28;20303;-40
2021/03/10 05:54:44;;;;;;;37.55;30.98;;;4.40;99.90;;;;;;5033646;28;20204;-40
2021/03/10 05:57:12;;;;;;;37.88;30.27;;;4.30;99.90;;;;;;5033497;28;20260;-40
2021/03/10 05:59:39;;;;;;;39.88;30.67;;;4.40;99.90;;;;;;5033459;28;20304;-41
2021/03/10 06:02:06;;;;;;;37.25;30.83;;;4.40;99.90;;;;;;5033527;28;20675;-40
2021/03/10 06:04:38;;;;;;;38.15;30.58;;;4.40;99.90;;;;;;5033449;28;20213;-40
2021/03/10 06:07:06;;;;;;;36.67;29.60;;;4.40;99.90;;;;;;5033515;28;20288;-40
2021/03/10 06:09:38;;;;;;;36.33;30.20;;;4.30;99.90;;;;;;5033766;28;20220;-41
2021/03/10 06:12:06;;;;;;;39.25;32.00;;;4.40;99.90;;;;;;5033246;28;20209;-40
2021/03/10 06:14:34;;;;;;;40.17;31.15;;;4.40;99.90;;;;;;5033069;28;20266;-40
2021/03/10 06:17:03;;;;;;;41.67;30.60;;;4.40;99.90;;;;;;5032951;28;20239;-40
2021/03/10 06:19:30;;;;;;;38.00;32.03;;;4.50;99.90;;;;;;5032970;28;20204;-40
2021/03/10 06:21:57;;;;;;;42.75;33.13;;;4.50;99.90;;;;;;5032292;28;20255;-40
2021/03/10 06:24:32;;;;;;;38.13;30.10;;;4.50;99.90;;;;;;5032960;28;20236;-40
2021/03/10 06:26:59;;;;;;;38.88;29.90;;;4.50;99.90;;;;;;5032935;28;20208;-39
2021/03/10 06:29:26;;;;;;;37.38;29.60;;;4.40;99.90;;;;;;5032838;28;20295;-40
2021/03/10 06:32:03;;;;;;;39.70;30.02;;;4.40;99.90;;;;;;5032710;28;20616;-41
2021/03/10 06:34:30;;;;;;;38.05;30.83;;;4.50;99.90;;;;;;5033016;28;20236;-40
2021/03/10 06:36:57;;;;;;;37.13;29.70;;;4.50;99.90;;;;;;5032883;28;20260;-41
2021/03/10 06:39:26;;;;;;;38.92;30.73;;;4.60;99.90;;;;;;5032843;28;20292;-40
2021/03/10 06:41:54;;;;;;;45.38;31.83;;;4.60;99.90;;;;;;5032825;28;20671;-40
2021/03/10 06:44:23;;;;;;;39.53;30.38;;;4.60;99.90;;;;;;5032498;28;20213;-41
2021/03/10 06:46:52;;;;;;;39.35;31.13;;;4.60;99.90;;;;;;5032440;28;20691;-40
2021/03/10 06:49:21;;;;;;;40.72;29.88;;;4.60;99.90;;;;;;5032581;28;20621;-40
2021/03/10 06:51:52;;;;;;;35.67;29.67;;;4.60;99.90;;;;;;5032720;28;20217;-41
2021/03/10 06:54:19;;;;;;;39.65;28.67;;;4.70;99.90;;;;;;5032335;28;20301;-42
2021/03/10 06:56:57;;;;;;;38.92;29.23;;;4.60;99.90;;;;;;5032346;28;20323;-40
2021/03/10 06:59:24;;;;;;;39.22;30.85;;;4.60;99.90;;;;;;5032504;28;20270;-41
2021/03/10 07:01:53;;;;;;;39.47;29.23;;;4.60;99.90;;;;;;5032515;28;20251;-42
2021/03/10 07:04:22;;;;;;;33.97;28.73;;;4.60;99.90;;;;;;5032544;28;20300;-40
2021/03/10 07:06:50;;;;;;;39.95;31.17;;;4.60;99.90;;;;;;5032326;28;20697;-41
2021/03/10 07:09:17;;;;;;;42.60;30.27;;;4.70;99.90;;;;;;5032058;28;20205;-41
2021/03/10 07:11:45;;;;;;;44.28;31.63;;;4.70;99.90;;;;;;5032138;28;20209;-42
2021/03/10 07:14:14;;;;;;;37.88;30.25;;;4.70;99.90;;;;;;5032222;28;20691;-42
2021/03/10 07:16:41;;;;;;;38.17;31.05;;;4.70;99.90;;;;;;5032493;28;20271;-42
2021/03/10 07:19:10;;;;;;;40.35;30.95;;;4.80;99.90;;;;;;5032034;28;20574;-41
2021/03/10 07:21:45;;;;;;;36.88;29.30;;;4.80;99.90;;;;;;5032069;28;20212;-43
2021/03/10 07:24:18;;;;;;;36.42;30.27;;;4.80;99.90;;;;;;5031929;28;20321;-40
2021/03/10 07:26:46;;;;;;;37.65;28.67;;;4.80;99.90;;;;;;5032244;28;20316;-42
2021/03/10 07:29:14;;;;;;;37.90;27.60;;;4.90;99.90;;;;;;5032147;28;20262;-40
2021/03/10 07:31:43;;;;;;;37.55;30.15;;;4.90;99.90;;;;;;5031898;28;20344;-39
2021/03/10 07:34:11;;;;;;;40.45;29.90;;;5.00;99.90;;;;;;5031863;28;20672;-44
2021/03/10 07:36:41;;;;;;;38.38;29.88;;;5.00;99.90;;;;;;5031763;28;20315;-39
2021/03/10 07:39:21;;;;;;;38.95;29.00;;;5.10;99.90;;;;;;5031869;28;20308;-41
2021/03/10 07:41:49;;;;;;;37.90;29.50;;;5.10;99.90;;;;;;5031710;28;20279;-40
2021/03/10 07:44:17;;;;;;;37.97;29.42;;;5.10;99.90;;;;;;5031773;28;20216;-40
2021/03/10 07:46:45;;;;;;;40.05;30.15;;;5.10;99.90;;;;;;5031748;28;20231;-40
2021/03/10 07:49:20;;;;;;;41.83;31.10;;;5.20;99.90;;;;;;5031842;28;20223;-41
2021/03/10 07:51:48;;;;;;;39.75;28.33;;;5.30;99.90;;;;;;5031965;28;20211;-41
2021/03/10 07:54:18;;;;;;;41.15;30.90;;;5.40;99.90;;;;;;5031597;28;20262;-40
2021/03/10 07:56:45;;;;;;;39.05;28.67;;;5.40;99.90;;;;;;5031711;28;20307;-40
2021/03/10 07:59:13;;;;;;;40.53;30.83;;;5.50;99.90;;;;;;5031771;28;20209;-41
2021/03/10 08:01:46;;;;;;;40.47;31.10;;;5.50;99.90;;;;;;5031131;28;20240;-41
2021/03/10 08:04:15;;;;;;;36.22;29.83;;;5.50;99.90;;;;;;5031622;28;20303;-40
2021/03/10 08:06:47;;;;;;;37.40;30.35;;;5.50;99.90;;;;;;5031344;28;20247;-40
2021/03/10 08:09:17;;;;;;;39.70;30.20;;;5.50;99.90;;;;;;5031585;28;20594;-41
2021/03/10 08:11:45;;;;;;;40.38;29.85;;;5.50;99.90;;;;;;5031381;28;20216;-41
2021/03/10 08:14:16;;;;;;;35.90;27.15;;;5.50;99.90;;;;;;5031595;28;20208;-41
2021/03/10 08:16:48;;;;;;;34.13;27.30;;;5.60;99.90;;;;;;5031427;28;20268;-41
2021/03/10 08:19:20;;;;;;;37.92;29.85;;;5.60;99.90;;;;;;5031467;28;20659;-41
2021/03/10 08:21:51;;;;;;;37.42;29.00;;;5.60;99.90;;;;;;5031664;28;20236;-41
2021/03/10 08:24:19;;;;;;;37.55;27.67;;;5.60;99.90;;;;;;5031522;28;20255;-41
2021/03/10 08:26:51;;;;;;;37.40;29.73;;;5.60;99.90;;;;;;5031875;28;20284;-42
2021/03/10 08:29:18;;;;;;;39.70;30.73;;;5.50;99.90;;;;;;5031458;28;20304;-41
2021/03/10 08:31:48;;;;;;;36.60;28.98;;;5.50;99.90;;;;;;5031416;28;20299;-41
2021/03/10 08:34:17;;;;;;;38.40;29.02;;;5.60;99.90;;;;;;5031388;28;20612;-41
2021/03/10 08:36:44;;;;;;;36.67;27.95;;;5.70;99.90;;;;;;5031160;28;20320;-41
2021/03/10 08:39:14;;;;;;;37.35;29.02;;;5.70;99.90;;;;;;5031326;28;20645;-41
2021/03/10 08:41:49;;;;;;;37.60;28.38;;;5.60;99.90;;;;;;5031492;28;20209;-41
2021/03/10 08:44:19;;;;;;;35.22;27.70;;;5.50;99.90;;;;;;5032115;28;20252;-40
2021/03/10 08:46:47;;;;;;;32.78;25.90;;;5.40;99.90;;;;;;5034864;28;20248;-41
2021/03/10 08:49:19;;;;;;;37.83;26.83;;;5.40;99.90;;;;;;5034772;28;20236;-41
2021/03/10 08:51:46;;;;;;;35.75;27.83;;;5.30;99.90;;;;;;5034928;28;20213;-40
2021/03/10 08:54:16;;;;;;;38.35;29.13;;;5.40;99.90;;;;;;5035017;28;20244;-40
2021/03/10 08:56:48;;;;;;;36.67;27.25;;;5.40;99.90;;;;;;5034449;28;20250;-41
2021/03/10 08:59:15;;;;;;;36.47;28.50;;;5.60;99.90;;;;;;5034617;28;20262;-41
2021/03/10 09:01:46;;;;;;;35.75;27.67;;;5.70;99.90;;;;;;5034236;28;20236;-40
2021/03/10 09:04:24;;;;;;;35.13;27.77;;;5.90;99.90;;;;;;5034751;28;20276;-41
2021/03/10 09:06:52;;;;;;;34.63;28.17;;;6.10;99.90;;;;;;5034440;28;20731;-40
2021/03/10 09:09:20;;;;;;;36.47;27.42;;;6.30;99.90;;;;;;5034356;28;20303;-40
2021/03/10 09:11:52;;;;;;;36.03;28.35;;;6.40;99.90;;;;;;5034396;28;20299;-40
2021/03/10 09:14:19;;;;;;;30.67;25.60;;;6.60;99.90;;;;;;5034402;28;20259;-40
2021/03/10 09:16:57;;;;;;;34.60;27.98;;;6.80;99.90;;;;;;5034044;28;20229;-41
2021/03/10 09:19:35;;;;;;;33.63;26.60;;;6.90;99.90;;;;;;5034582;28;20205;-41
2021/03/10 09:22:19;;;;;;;32.67;25.55;;;7.00;99.90;;;;;;5034232;28;20208;-41
2021/03/10 09:25:09;;;;;;;36.58;26.10;;;7.00;99.90;;;;;;5034396;28;20189;-41
2021/03/10 09:27:36;;;;;;;34.70;26.20;;;7.00;99.90;;;;;;5033985;28;20219;-42
2021/03/10 09:30:07;;;;;;;36.25;27.50;;;7.00;99.90;;;;;;5034023;28;20212;-42
2021/03/10 09:32:41;;;;;;;34.45;26.80;;;7.10;99.90;;;;;;5034107;28;20632;-42
2021/03/10 09:35:17;;;;;;;39.20;27.15;;;7.10;99.90;;;;;;5033817;28;20747;-42
2021/03/10 09:37:50;;;;;;;33.17;26.70;;;7.00;99.90;;;;;;5033959;28;20228;-43
2021/03/10 09:40:20;;;;;;;31.67;24.83;;;7.10;99.90;;;;;;5033950;28;20224;-42
2021/03/10 09:42:57;;;;;;;33.40;26.65;;;7.20;99.90;;;;;;5033759;28;20300;-43
2021/03/10 09:45:26;;;;;;;36.00;26.60;;;7.30;99.90;;;;;;5034430;28;20259;-41
2021/03/10 09:48:06;;;;;;;32.10;25.20;;;7.50;99.90;;;;;;5033417;28;20209;-40
2021/03/10 09:50:38;;;;;;;34.55;26.25;;;7.70;99.90;;;;;;5033232;28;20601;-39
2021/03/10 09:53:16;;;;;;;32.63;24.77;;;7.80;99.90;;;;;;5033691;28;20205;-40
2021/03/10 09:55:44;;;;;;;31.77;23.27;;;7.80;99.90;;;;;;5032222;28;20737;-40
2021/03/10 09:58:13;;;;;;;29.17;23.85;;;7.80;99.90;;;;;;5033176;28;20229;-40
2021/03/10 10:00:41;;;;;;;34.13;25.80;;;7.90;99.90;;;;;;5033625;28;20246;-40
2021/03/10 10:03:09;;;;;;;31.70;24.17;;;8.00;99.90;;;;;;5033179;28;20240;-40
2021/03/10 10:05:38;;;;;;;33.75;25.60;;;8.10;99.90;;;;;;5033197;28;20287;-40
2021/03/10 10:08:06;;;;;;;31.55;25.52;;;8.20;99.90;;;;;;5032972;28;20664;-40
2021/03/10 10:10:34;;;;;;;35.20;24.95;;;8.20;99.90;;;;;;5032682;28;20209;-40
2021/03/10 10:13:03;;;;;;;26.33;22.73;;;8.40;99.90;;;;;;5032995;28;20263;-40
2021/03/10 10:15:32;;;;;;;26.67;22.35;;;8.50;99.90;;;;;;5033239;28;20300;-40
2021/03/10 10:18:04;;;;;;;28.02;21.42;;;8.50;99.90;;;;;;5033158;28;20232;-40
2021/03/10 10:20:33;;;;;;;29.92;25.08;;;8.60;99.90;;;;;;5033159;28;20219;-40
2021/03/10 10:23:02;;;;;;;25.67;21.83;;;8.40;99.90;;;;;;5032841;28;20213;-40
2021/03/10 10:25:33;;;;;;;31.30;22.55;;;8.40;99.90;;;;;;5032942;28;20696;-40
2021/03/10 10:28:00;;;;;;;28.15;21.85;;;8.40;99.90;;;;;;5033035;28;20212;-40
2021/03/10 10:30:28;;;;;;;30.38;22.25;;;8.30;99.90;;;;;;5032831;28;20208;-40
2021/03/10 10:32:55;;;;;;;29.65;22.85;;;8.20;99.90;;;;;;5032688;28;20548;-40
2021/03/10 10:35:22;;;;;;;27.63;21.80;;;8.20;99.90;;;;;;5032808;28;20208;-40
2021/03/10 10:37:50;;;;;;;25.08;20.90;;;8.30;99.90;;;;;;5032689;28;20263;-40
2021/03/10 10:40:19;;;;;;;29.98;21.25;;;8.30;99.70;;;;;;5032956;28;20300;-40
2021/03/10 10:43:04;;;;;;;27.63;20.23;;;8.30;99.60;;;;;;5032627;28;20204;-40
2021/03/10 10:45:32;;;;;;;28.58;22.63;;;8.30;99.60;;;;;;5032496;28;20209;-40
2021/03/10 10:47:59;;;;;;;29.88;22.33;;;8.30;99.40;;;;;;5032492;28;20721;-40
2021/03/10 10:50:27;;;;;;;28.45;22.83;;;8.30;99.40;;;;;;5032558;28;20209;-40
2021/03/10 10:52:54;;;;;;;32.13;23.55;;;8.40;99.30;;;;;;5032335;28;20240;-40
2021/03/10 10:55:22;;;;;;;27.58;21.75;;;8.40;99.10;;;;;;5032696;28;20209;-40
2021/03/10 10:57:49;;;;;;;28.08;20.80;;;8.50;98.80;;;;;;5032471;28;20255;-40
2021/03/10 11:00:22;;;;;;;23.88;20.48;;;8.60;98.60;;;;;;5032297;28;20243;-39
2021/03/10 11:02:55;;;;;;;27.05;21.02;;;8.80;98.40;;;;;;5032272;28;20711;-40
2021/03/10 11:05:23;;;;;;;23.63;18.63;;;8.80;97.90;;;;;;5032277;28;20704;-40
2021/03/10 11:07:50;;;;;;;25.83;20.45;;;8.90;97.80;;;;;;5031919;28;20631;-40
2021/03/10 11:10:17;;;;;;;23.73;18.80;;;8.90;97.50;;;;;;5032278;28;20205;-40
2021/03/10 11:12:44;;;;;;;23.88;18.50;;;9.00;97.30;;;;;;5032116;28;20673;-40
2021/03/10 11:15:11;;;;;;;23.58;19.80;;;9.00;96.90;;;;;;5032130;28;20236;-39
2021/03/10 11:17:38;;;;;;;25.00;19.60;;;9.00;96.90;;;;;;5031827;28;20699;-40
2021/03/10 11:20:08;;;;;;;24.67;19.77;;;9.10;96.90;;;;;;5031876;28;20243;-39
2021/03/10 11:22:37;;;;;;;26.08;19.80;;;9.20;96.50;;;;;;5031635;28;20213;-40
2021/03/10 11:25:06;;;;;;;25.35;19.17;;;9.30;96.60;;;;;;5031747;28;20223;-40
2021/03/10 11:27:33;;;;;;;27.88;22.15;;;9.40;96.30;;;;;;5031847;28;20216;-39
2021/03/10 11:30:00;;;;;;;24.83;19.02;;;9.50;96.10;;;;;;5031646;28;20305;-41
2021/03/10 11:32:27;;;;;;;27.48;19.98;;;9.40;96.00;;;;;;5032257;28;20700;-43
2021/03/10 11:34:54;;;;;;;24.83;19.73;;;9.10;96.10;;;;;;5031629;28;20209;-41
2021/03/10 11:37:22;;;;;;;25.73;19.90;;;8.90;96.30;;;;;;5031691;28;20224;-40
2021/03/10 11:39:49;;;;;;;22.83;18.67;;;8.70;96.50;;;;;;5031766;28;20240;-40
2021/03/10 11:42:16;;;;;;;24.70;19.85;;;8.60;96.80;;;;;;5031515;28;20216;-39
2021/03/10 11:44:43;;;;;;;25.67;19.33;;;8.50;96.90;;;;;;5031764;28;20266;-38
2021/03/10 11:47:10;;;;;;;27.38;21.23;;;8.50;97.00;;;;;;5031803;28;20346;-39
2021/03/10 11:49:37;;;;;;;26.75;21.15;;;8.60;97.00;;;;;;5031413;28;20216;-39
2021/03/10 11:52:05;;;;;;;25.60;19.90;;;8.70;97.10;;;;;;5031428;28;20309;-39
2021/03/10 11:54:33;;;;;;;21.00;17.50;;;8.90;96.60;;;;;;5031556;28;20507;-40
2021/03/10 11:57:00;;;;;;;23.02;17.65;;;9.10;96.00;;;;;;5031075;28;20579;-40
2021/03/10 11:59:27;;;;;;;20.15;17.35;;;9.40;95.30;;;;;;5031465;28;20251;-39
2021/03/10 12:01:54;;;;;;;23.00;18.00;;;9.60;95.00;;;;;;5031314;28;20241;-40
2021/03/10 12:04:21;;;;;;;25.63;18.90;;;9.80;94.70;;;;;;5031386;28;20413;-40
2021/03/10 12:06:48;;;;;;;20.45;17.63;;;10.00;94.40;;;;;;5031424;28;20216;-40
2021/03/10 12:09:15;;;;;;;17.05;15.25;;;10.20;93.50;;;;;;5031329;28;20209;-38
2021/03/10 12:11:42;;;;;;;16.67;14.55;;;10.20;93.40;;;;;;5031326;28;20209;-39
2021/03/10 12:14:22;;;;;;;17.83;15.85;;;10.20;93.10;;;;;;5031167;28;20204;-39
2021/03/10 12:16:49;;;;;;;22.02;17.67;;;10.20;92.90;;;;;;5030984;28;20208;-39
2021/03/10 12:19:16;;;;;;;23.38;16.88;;;10.20;92.90;;;;;;5031764;28;20216;-40
2021/03/10 12:21:43;;;;;;;22.63;17.33;;;10.10;93.20;;;;;;5034808;28;20235;-40
2021/03/10 12:24:10;;;;;;;23.13;18.13;;;10.00;93.30;;;;;;5034695;28;20299;-40
2021/03/10 12:26:38;;;;;;;21.42;17.92;;;9.90;93.20;;;;;;5034573;28;20726;-39
2021/03/10 12:29:06;;;;;;;24.48;19.60;;;9.90;93.50;;;;;;5034777;28;20205;-39
2021/03/10 12:31:33;;;;;;;26.73;18.38;;;10.00;93.40;;;;;;5034897;28;20251;-40
2021/03/10 12:34:01;;;;;;;28.98;21.92;;;10.10;93.30;;;;;;5035124;28;20237;-40
2021/03/10 12:36:28;;;;;;;24.15;19.20;;;10.10;93.20;;;;;;5034793;28;20212;-40
2021/03/10 12:38:55;;;;;;;22.38;18.50;;;10.20;93.10;;;;;;5035090;28;20262;-40
2021/03/10 12:41:22;;;;;;;20.92;18.20;;;10.40;92.80;;;;;;5034994;28;20204;-39
2021/03/10 12:43:50;;;;;;;20.42;16.10;;;10.70;92.30;;;;;;5034589;28;20338;-39